Time;durP1;ratioP1;P1;durP2;ratioP2;P2;SDS_P1;SDS_P2;PMS_P1;PMS_P2;Temp;Humidity;BMP_temperature;BMP_pressure;BME280_temperature;BME280_humidity;BME280_pressure;Samples;Min_cycle;Max_cycle;Signal;HPM_P1;HPM_P2
2023/10/16 00:01:09;;;;;;;4.13;2.22;;;3.60;77.00;;;;;;5053989;28;20362;-81
2023/10/16 00:03:38;;;;;;;6.38;2.45;;;3.60;77.10;;;;;;5053389;28;20425;-86
2023/10/16 00:06:05;;;;;;;5.38;2.20;;;3.50;77.40;;;;;;5054817;28;20048;-84
2023/10/16 00:08:33;;;;;;;4.80;2.72;;;3.50;77.50;;;;;;5053256;28;20021;-84
2023/10/16 00:11:03;;;;;;;6.50;2.60;;;3.50;77.50;;;;;;5054581;28;20071;-83
2023/10/16 00:13:30;;;;;;;5.43;2.10;;;3.60;77.30;;;;;;5053968;28;20032;-85
2023/10/16 00:15:57;;;;;;;4.07;2.03;;;3.50;77.30;;;;;;5054596;28;20123;-83
2023/10/16 00:18:24;;;;;;;4.60;2.40;;;3.50;77.50;;;;;;5054690;28;20446;-85
2023/10/16 00:20:51;;;;;;;4.13;2.15;;;3.50;77.40;;;;;;5054383;28;20057;-83
2023/10/16 00:23:17;;;;;;;4.88;2.38;;;3.50;77.30;;;;;;5055508;28;20460;-81
2023/10/16 00:25:44;;;;;;;4.07;2.28;;;3.50;77.40;;;;;;5053954;28;20040;-82
2023/10/16 00:28:11;;;;;;;5.47;2.85;;;3.50;77.60;;;;;;5054344;28;20108;-82
2023/10/16 00:30:40;;;;;;;8.27;2.97;;;3.50;77.70;;;;;;5053852;28;20029;-82
2023/10/16 00:33:10;;;;;;;7.65;2.90;;;3.60;77.60;;;;;;5053422;28;20033;-81
2023/10/16 00:35:39;;;;;;;5.10;3.03;;;3.60;76.90;;;;;;5053300;28;20029;-81
2023/10/16 00:38:12;;;;;;;5.85;2.97;;;3.60;76.80;;;;;;5053623;28;20381;-81
2023/10/16 00:41:05;;;;;;;5.85;2.65;;;3.60;76.80;;;;;;5053589;28;20017;-81
2023/10/16 00:43:33;;;;;;;5.72;3.20;;;3.60;76.60;;;;;;5053797;28;20027;-83
2023/10/16 00:46:06;;;;;;;7.75;2.67;;;3.60;76.70;;;;;;5053697;28;20017;-82
2023/10/16 00:48:36;;;;;;;5.32;2.50;;;3.60;76.40;;;;;;5053827;28;20327;-84
2023/10/16 00:51:24;;;;;;;4.95;2.45;;;3.50;76.60;;;;;;5053624;28;20116;-82
2023/10/16 00:53:48;;;;;;;6.22;2.35;;;3.50;76.50;;;;;;5053863;28;20028;-86
2023/10/16 00:56:14;;;;;;;6.68;2.35;;;3.60;76.60;;;;;;5054677;28;20033;-85
2023/10/16 00:58:41;;;;;;;5.57;2.45;;;3.60;76.20;;;;;;5054792;28;20086;-83
2023/10/16 01:01:12;;;;;;;6.85;2.50;;;3.60;76.40;;;;;;5053568;28;20104;-80
2023/10/16 01:03:40;;;;;;;9.18;2.40;;;3.60;76.20;;;;;;5054654;28;20433;-80
2023/10/16 01:06:15;;;;;;;6.72;2.65;;;3.50;76.50;;;;;;5054153;28;20382;-82
2023/10/16 01:08:51;;;;;;;3.95;2.33;;;3.50;76.90;;;;;;5053797;28;20411;-83
2023/10/16 01:11:19;;;;;;;5.00;2.42;;;3.50;76.80;;;;;;5052814;28;20024;-77
2023/10/16 01:13:48;;;;;;;5.38;2.03;;;3.50;76.40;;;;;;5052163;28;20098;-78
2023/10/16 01:16:18;;;;;;;4.32;1.77;;;3.50;76.50;;;;;;5051516;28;20131;-77
2023/10/16 01:18:45;;;;;;;4.13;1.90;;;3.60;76.30;;;;;;5052691;28;20021;-76
2023/10/16 01:21:13;;;;;;;5.18;2.53;;;3.50;76.10;;;;;;5053098;28;20037;-74
2023/10/16 01:23:40;;;;;;;3.38;2.08;;;3.50;76.30;;;;;;5052768;28;20048;-73
2023/10/16 01:26:06;;;;;;;5.05;2.20;;;3.60;76.40;;;;;;5052658;28;20398;-73
2023/10/16 01:28:32;;;;;;;3.88;1.65;;;3.60;76.20;;;;;;5053655;28;20021;-72
2023/10/16 01:31:00;;;;;;;3.53;1.83;;;3.60;76.00;;;;;;5057004;28;20029;-80
2023/10/16 01:33:25;;;;;;;5.63;1.65;;;3.70;76.00;;;;;;5068310;28;20409;-80
2023/10/16 01:35:51;;;;;;;4.22;1.80;;;3.70;75.90;;;;;;5070876;28;20048;-80
2023/10/16 01:38:17;;;;;;;5.90;1.90;;;3.70;75.70;;;;;;5061550;28;20033;-82
2023/10/16 01:43:33;;;;;;;4.38;2.20;;;3.70;75.70;;;;;;5053919;28;20108;-80
2023/10/16 01:46:08;;;;;;;4.03;2.15;;;3.70;75.50;;;;;;5057334;28;20040;-81
2023/10/16 01:48:39;;;;;;;4.43;2.05;;;3.60;75.20;;;;;;5056703;28;20025;-80
2023/10/16 01:51:05;;;;;;;4.85;2.25;;;3.70;75.40;;;;;;5056274;28;20024;-80
2023/10/16 01:53:36;;;;;;;4.93;1.98;;;3.70;75.50;;;;;;5056070;28;20017;-81
2023/10/16 01:56:12;;;;;;;3.38;1.48;;;3.70;75.30;;;;;;5058166;28;20374;-81
2023/10/16 01:58:38;;;;;;;3.72;1.85;;;3.70;75.20;;;;;;5056514;28;20420;-81
2023/10/16 02:01:04;;;;;;;2.83;1.70;;;3.70;75.30;;;;;;5056413;28;20021;-80
2023/10/16 02:03:30;;;;;;;3.03;1.48;;;3.70;75.00;;;;;;5056877;28;20051;-82
2023/10/16 02:05:55;;;;;;;3.28;1.75;;;3.80;74.90;;;;;;5061395;28;20017;-83
2023/10/16 02:08:21;;;;;;;5.00;1.88;;;3.80;75.00;;;;;;5061491;28;20768;-82
2023/10/16 02:10:49;;;;;;;4.07;1.73;;;3.80;74.90;;;;;;5062626;28;20021;-83
2023/10/16 02:13:14;;;;;;;4.43;1.40;;;3.80;74.80;;;;;;5065981;28;20021;-86
2023/10/16 02:15:40;;;;;;;4.28;1.60;;;3.80;74.90;;;;;;5057801;28;20051;-85
2023/10/16 02:18:07;;;;;;;3.17;1.13;;;3.80;74.70;;;;;;5057746;28;20461;-82
2023/10/16 02:20:38;;;;;;;2.38;1.45;;;3.80;74.80;;;;;;5054970;28;20338;-83
2023/10/16 02:23:07;;;;;;;1.75;1.10;;;3.70;74.60;;;;;;5055158;28;20017;-83
2023/10/16 02:25:33;;;;;;;2.63;1.30;;;3.80;74.80;;;;;;5054685;28;20052;-80
2023/10/16 02:27:58;;;;;;;3.22;1.40;;;3.80;74.70;;;;;;5055623;28;20029;-73
2023/10/16 02:32:53;;;;;;;2.42;1.27;;;3.80;74.60;;;;;;5055320;28;20025;-73
2023/10/16 02:35:21;;;;;;;3.47;1.33;;;3.70;74.30;;;;;;5055335;28;20104;-73
2023/10/16 02:37:53;;;;;;;3.55;1.50;;;3.70;74.40;;;;;;5054286;28;20112;-72
2023/10/16 02:40:25;;;;;;;2.05;1.10;;;3.70;75.30;;;;;;5055543;28;20075;-74
2023/10/16 02:42:55;;;;;;;5.20;2.00;;;3.70;74.80;;;;;;5059059;28;20036;-73
2023/10/16 02:45:25;;;;;;;2.50;1.35;;;3.70;74.90;;;;;;5055367;28;20454;-73
2023/10/16 02:47:51;;;;;;;2.40;1.20;;;3.70;74.90;;;;;;5055016;28;20047;-73
2023/10/16 02:50:18;;;;;;;4.47;1.55;;;3.70;75.00;;;;;;5053031;28;20392;-74
2023/10/16 02:52:45;;;;;;;2.35;1.40;;;3.70;75.00;;;;;;5054969;28;20029;-75
2023/10/16 02:55:11;;;;;;;3.80;1.60;;;3.70;74.80;;;;;;5054927;28;20465;-73
2023/10/16 02:57:40;;;;;;;3.10;1.40;;;3.80;74.80;;;;;;5054090;28;20109;-74
2023/10/16 03:00:15;;;;;;;4.63;1.50;;;3.70;74.60;;;;;;5053757;28;20029;-84
2023/10/16 03:02:40;;;;;;;1.90;1.30;;;3.80;74.50;;;;;;5055338;28;20021;-73
2023/10/16 03:05:21;;;;;;;2.15;1.70;;;3.70;74.30;;;;;;5054791;28;20036;-73
2023/10/16 03:07:49;;;;;;;3.05;1.50;;;3.70;74.30;;;;;;5054734;28;20466;-73
2023/10/16 03:10:20;;;;;;;5.07;2.08;;;3.60;75.10;;;;;;5054675;28;20025;-73
2023/10/16 03:12:49;;;;;;;4.07;1.65;;;3.60;74.20;;;;;;5054610;28;20104;-76
2023/10/16 03:15:20;;;;;;;4.88;1.45;;;3.70;74.40;;;;;;5054593;28;20040;-76
2023/10/16 03:17:50;;;;;;;4.53;1.67;;;3.60;74.10;;;;;;5054789;28;20032;-75
2023/10/16 03:20:20;;;;;;;4.22;2.15;;;3.60;74.00;;;;;;5055087;28;20021;-80
2023/10/16 03:22:47;;;;;;;3.22;1.50;;;3.60;74.10;;;;;;5055078;28;20021;-82
2023/10/16 03:25:24;;;;;;;3.20;2.03;;;3.50;74.10;;;;;;5055152;28;20017;-83
2023/10/16 03:27:50;;;;;;;4.15;2.33;;;3.50;74.20;;;;;;5055250;28;20033;-83
2023/10/16 03:30:17;;;;;;;4.38;2.20;;;3.40;74.40;;;;;;5054621;28;20021;-76
2023/10/16 03:32:42;;;;;;;2.60;1.90;;;3.50;74.50;;;;;;5054259;28;20732;-75
2023/10/16 03:35:14;;;;;;;5.15;1.88;;;3.40;74.40;;;;;;5053424;28;20048;-82
2023/10/16 03:37:40;;;;;;;3.22;1.60;;;3.40;74.40;;;;;;5054687;28;20025;-74
2023/10/16 03:40:11;;;;;;;3.65;1.50;;;3.40;74.80;;;;;;5054219;28;20039;-74
2023/10/16 03:42:40;;;;;;;3.50;1.60;;;3.40;74.00;;;;;;5054045;28;20029;-74
2023/10/16 03:45:06;;;;;;;2.85;1.70;;;3.30;74.10;;;;;;5054153;28;20155;-74
2023/10/16 03:47:33;;;;;;;6.55;1.85;;;3.20;74.00;;;;;;5053848;28;20449;-73
2023/10/16 03:49:59;;;;;;;4.25;1.50;;;3.20;74.10;;;;;;5053816;28;20416;-73
2023/10/16 03:52:26;;;;;;;4.10;1.50;;;3.10;74.30;;;;;;5053740;28;20056;-73
2023/10/16 03:54:53;;;;;;;4.68;1.88;;;3.00;74.90;;;;;;5053591;28;20016;-73
2023/10/16 03:57:20;;;;;;;4.97;2.40;;;3.10;75.00;;;;;;5053401;28;20534;-74
2023/10/16 03:59:47;;;;;;;5.00;2.53;;;3.00;74.80;;;;;;5052238;28;20058;-73
2023/10/16 04:02:23;;;;;;;4.18;2.53;;;3.00;74.80;;;;;;5053665;28;20061;-73
2023/10/16 04:04:53;;;;;;;7.78;4.65;;;3.00;74.90;;;;;;5053636;28;20126;-73
2023/10/16 04:07:22;;;;;;;11.43;4.38;;;2.90;74.90;;;;;;5053532;28;20057;-74
2023/10/16 04:09:52;;;;;;;5.30;3.35;;;2.80;75.30;;;;;;5053559;28;20055;-73
2023/10/16 04:12:20;;;;;;;7.90;3.03;;;2.80;75.50;;;;;;5053435;28;20477;-75
2023/10/16 04:14:50;;;;;;;9.27;2.85;;;2.80;75.70;;;;;;5053560;28;20489;-73
2023/10/16 04:17:16;;;;;;;4.15;2.03;;;2.80;75.60;;;;;;5051851;28;20129;-73
2023/10/16 04:19:59;;;;;;;6.68;2.47;;;2.70;75.80;;;;;;5053341;28;20226;-73
2023/10/16 04:22:25;;;;;;;4.60;2.25;;;2.80;75.50;;;;;;5053381;28;20060;-74
2023/10/16 04:24:54;;;;;;;9.18;3.33;;;2.70;75.90;;;;;;5053228;28;20446;-74
2023/10/16 04:29:49;;;;;;;6.63;2.85;;;2.70;75.60;;;;;;5053432;28;20056;-74
2023/10/16 04:32:37;;;;;;;6.95;2.20;;;2.60;75.70;;;;;;5053190;28;20017;-74
2023/10/16 04:35:28;;;;;;;4.57;2.17;;;2.60;76.00;;;;;;5051708;28;20047;-74
2023/10/16 04:38:27;;;;;;;5.55;2.25;;;2.50;76.30;;;;;;5053062;28;20150;-73
2023/10/16 04:42:49;;;;;;;3.65;1.58;;;2.60;76.10;;;;;;5052855;28;20485;-75
2023/10/16 04:43:37;;;;;;;3.58;1.92;;;2.60;76.10;;;;;;5052875;28;20119;-75
2023/10/16 04:46:19;;;;;;;5.32;2.42;;;2.70;76.20;;;;;;5052967;28;20363;-75
2023/10/16 04:48:48;;;;;;;6.85;2.78;;;2.60;76.00;;;;;;5052992;28;20071;-74
2023/10/16 04:51:22;;;;;;;4.43;2.45;;;2.60;76.10;;;;;;5051682;28;20424;-74
2023/10/16 04:53:58;;;;;;;4.30;2.22;;;2.60;76.10;;;;;;5052837;28;20112;-75
2023/10/16 04:56:57;;;;;;;6.43;2.42;;;2.60;76.20;;;;;;5052734;28;20028;-74
2023/10/16 05:02:33;;;;;;;6.38;2.78;;;2.70;76.30;;;;;;5052718;28;20039;-74
2023/10/16 05:05:06;;;;;;;3.85;2.28;;;2.60;75.60;;;;;;5052728;28;20052;-74
2023/10/16 05:07:38;;;;;;;9.70;3.00;;;2.60;76.10;;;;;;5052681;28;20049;-74
2023/10/16 05:10:18;;;;;;;6.65;2.80;;;2.60;75.80;;;;;;5052734;28;20032;-74
2023/10/16 05:18:42;;;;;;;8.45;4.18;;;2.70;75.70;;;;;;5052433;28;20036;-74
2023/10/16 05:22:01;;;;;;;12.75;4.32;;;2.60;75.60;;;;;;5054842;28;20063;-79
2023/10/16 06:16:03;;;;;;;9.02;5.65;;;2.90;74.60;;;;;;5055549;28;20040;-72
2023/10/16 06:18:30;;;;;;;8.20;6.13;;;2.90;74.00;;;;;;5054238;28;20374;-75
2023/10/16 06:21:00;;;;;;;9.75;6.47;;;2.90;74.80;;;;;;5055386;28;20021;-74
2023/10/16 06:23:28;;;;;;;10.20;5.05;;;2.90;73.60;;;;;;5054322;28;20025;-71
2023/10/16 06:25:54;;;;;;;8.07;4.90;;;2.90;73.70;;;;;;5055499;28;20021;-72
2023/10/16 06:28:21;;;;;;;6.90;4.43;;;2.90;73.60;;;;;;5055483;28;20031;-71
2023/10/16 06:30:47;;;;;;;8.35;5.18;;;3.00;73.60;;;;;;5053690;28;20032;-74
2023/10/16 06:33:14;;;;;;;9.30;5.38;;;3.10;73.70;;;;;;5054375;28;20067;-73
2023/10/16 06:35:41;;;;;;;8.75;5.63;;;3.20;73.30;;;;;;5054174;28;20099;-75
2023/10/16 06:38:11;;;;;;;10.90;5.53;;;3.30;73.10;;;;;;5055306;28;20449;-73
2023/10/16 06:40:37;;;;;;;8.88;5.13;;;3.30;72.80;;;;;;5055224;28;20029;-75
2023/10/16 06:43:13;;;;;;;7.85;4.72;;;3.30;72.70;;;;;;5055314;28;20096;-74
2023/10/16 06:45:42;;;;;;;9.75;6.00;;;3.40;72.60;;;;;;5055176;28;20017;-75
2023/10/16 06:48:10;;;;;;;8.68;5.47;;;3.40;72.50;;;;;;5055102;28;20473;-76
2023/10/16 06:50:44;;;;;;;12.57;6.18;;;3.50;72.40;;;;;;5055051;28;20031;-75
2023/10/16 06:53:10;;;;;;;10.55;6.40;;;3.60;72.20;;;;;;5054977;28;20485;-74
2023/10/16 06:55:36;;;;;;;10.68;5.32;;;3.70;72.00;;;;;;5055100;28;20028;-74
2023/10/16 06:58:01;;;;;;;10.68;5.35;;;3.80;71.70;;;;;;5053929;28;20522;-74
2023/10/16 07:00:27;;;;;;;8.02;5.00;;;4.00;71.50;;;;;;5054046;28;20017;-72
2023/10/16 07:02:54;;;;;;;10.77;5.38;;;4.00;71.20;;;;;;5053637;28;20025;-74
2023/10/16 07:05:22;;;;;;;8.10;4.82;;;4.10;70.80;;;;;;5054689;28;20048;-73
2023/10/16 07:07:59;;;;;;;7.68;4.47;;;4.20;70.70;;;;;;5053629;28;20035;-72
2023/10/16 07:10:24;;;;;;;20.23;6.43;;;4.30;70.60;;;;;;5054892;28;20029;-72
2023/10/16 07:12:59;;;;;;;10.18;5.93;;;4.70;85.70;;;;;;5054651;28;20033;-74
2023/10/16 07:15:29;;;;;;;10.65;4.90;;;4.90;87.20;;;;;;5053214;28;20116;-74
2023/10/16 07:18:13;;;;;;;6.47;4.63;;;5.10;81.00;;;;;;5053469;28;20039;-75
2023/10/16 07:23:24;;;;;;;7.63;3.92;;;5.30;74.40;;;;;;5054516;28;20060;-75
2023/10/16 07:25:54;;;;;;;5.40;3.47;;;5.70;72.40;;;;;;5054322;28;20051;-77
2023/10/16 07:28:21;;;;;;;6.70;3.63;;;6.00;69.20;;;;;;5053094;28;20035;-74
2023/10/16 07:30:46;;;;;;;8.02;4.13;;;6.30;68.90;;;;;;5053055;28;20052;-75
2023/10/16 07:33:34;;;;;;;9.75;5.50;;;6.50;67.60;;;;;;5052178;28;20064;-75
2023/10/16 07:36:01;;;;;;;8.10;5.18;;;6.60;66.90;;;;;;5052939;28;20094;-76
2023/10/16 07:38:28;;;;;;;11.65;7.05;;;6.70;67.50;;;;;;5052996;28;20021;-76
2023/10/16 07:40:58;;;;;;;11.20;7.07;;;7.10;66.00;;;;;;5052650;28;20087;-77
2023/10/16 07:43:29;;;;;;;10.15;6.13;;;7.10;63.90;;;;;;5052559;28;20097;-77
2023/10/16 07:48:40;;;;;;;9.23;5.25;;;7.70;62.70;;;;;;5054238;28;20112;-73
2023/10/16 07:51:07;;;;;;;8.85;4.22;;;7.70;62.40;;;;;;5052606;28;20025;-74
2023/10/16 07:53:42;;;;;;;10.35;4.32;;;7.80;62.70;;;;;;5053838;28;20053;-78
2023/10/16 07:59:06;;;;;;;6.47;3.45;;;8.00;61.10;;;;;;5041537;28;20558;-74
2023/10/16 08:01:36;;;;;;;6.68;3.33;;;8.20;61.70;;;;;;5053374;28;20103;-74
2023/10/16 08:06:55;;;;;;;6.38;3.33;;;8.70;61.00;;;;;;5053871;28;20029;-74
2023/10/16 08:11:57;;;;;;;5.97;3.50;;;9.10;58.60;;;;;;5053905;28;20094;-74
2023/10/16 08:14:27;;;;;;;5.18;3.25;;;9.20;58.30;;;;;;5053676;28;20056;-74
2023/10/16 08:16:58;;;;;;;6.68;3.67;;;9.40;58.70;;;;;;5053310;28;20037;-74
2023/10/16 08:19:31;;;;;;;7.72;3.63;;;9.70;58.10;;;;;;5053324;28;20049;-73
2023/10/16 08:22:03;;;;;;;5.22;3.30;;;10.10;57.10;;;;;;5053313;28;20029;-73
2023/10/16 08:24:30;;;;;;;7.25;3.70;;;10.50;56.30;;;;;;5053175;28;20063;-74
2023/10/16 08:27:13;;;;;;;7.78;4.07;;;10.80;55.30;;;;;;5053127;28;20049;-71
2023/10/16 08:29:50;;;;;;;6.90;3.47;;;10.80;53.70;;;;;;5053167;28;20051;-72
2023/10/16 08:35:01;;;;;;;8.43;3.80;;;10.50;55.00;;;;;;5053105;28;20087;-73
2023/10/16 08:37:26;;;;;;;6.57;3.88;;;10.50;55.40;;;;;;5052803;28;20295;-76
2023/10/16 08:39:52;;;;;;;8.45;4.43;;;10.30;55.60;;;;;;5053236;28;20021;-73
2023/10/16 08:42:21;;;;;;;6.43;4.53;;;9.90;57.50;;;;;;5053303;28;20050;-74
2023/10/16 08:44:51;;;;;;;6.45;4.55;;;9.60;58.40;;;;;;5053118;28;20024;-78
2023/10/16 08:47:24;;;;;;;8.88;4.53;;;9.70;59.30;;;;;;5053955;28;20052;-74
2023/10/16 08:49:54;;;;;;;12.10;4.50;;;9.60;59.40;;;;;;5053576;28;20100;-74
2023/10/16 08:52:22;;;;;;;8.38;4.60;;;9.30;60.20;;;;;;5053860;28;20033;-73
2023/10/16 08:57:28;;;;;;;17.27;8.18;;;8.70;63.90;;;;;;5053069;28;20557;-74
2023/10/16 08:59:58;;;;;;;10.48;4.50;;;8.80;64.50;;;;;;5052402;28;20028;-74
2023/10/16 09:02:25;;;;;;;10.90;6.15;;;9.10;62.20;;;;;;5052823;28;20106;-74
2023/10/16 09:04:55;;;;;;;10.70;5.78;;;9.20;62.00;;;;;;5052410;28;20024;-73
2023/10/16 09:07:20;;;;;;;9.23;5.70;;;9.30;61.70;;;;;;5052527;28;20033;-72
2023/10/16 09:09:49;;;;;;;11.13;7.63;;;9.40;60.80;;;;;;5053390;28;20024;-83
2023/10/16 09:12:24;;;;;;;9.65;4.93;;;9.50;60.40;;;;;;5053627;28;20029;-82
2023/10/16 09:14:50;;;;;;;4.93;3.03;;;9.50;60.50;;;;;;5054137;28;20048;-83
2023/10/16 09:17:19;;;;;;;10.50;3.60;;;9.50;60.10;;;;;;5052129;28;20045;-79
2023/10/16 09:19:47;;;;;;;7.10;3.45;;;9.50;60.80;;;;;;5053339;28;20104;-83
2023/10/16 09:22:13;;;;;;;5.93;4.05;;;9.50;60.50;;;;;;5053690;28;20056;-83
2023/10/16 09:24:44;;;;;;;10.23;4.82;;;9.40;60.70;;;;;;5052259;28;20021;-84
2023/10/16 09:27:16;;;;;;;8.70;4.38;;;9.70;60.80;;;;;;5052705;28;20031;-84
2023/10/16 09:29:53;;;;;;;8.80;4.30;;;9.90;60.40;;;;;;5052394;28;20108;-72
2023/10/16 09:32:22;;;;;;;9.40;5.00;;;10.10;59.20;;;;;;5052292;28;20025;-72
2023/10/16 09:34:58;;;;;;;6.85;4.03;;;10.20;59.00;;;;;;5052300;28;20513;-73
2023/10/16 09:37:34;;;;;;;8.93;4.75;;;10.50;58.20;;;;;;5052344;28;20044;-72
2023/10/16 09:43:05;;;;;;;8.43;4.40;;;11.10;56.00;;;;;;5052809;28;20035;-72
2023/10/16 09:45:33;;;;;;;7.83;3.93;;;11.20;55.20;;;;;;5052305;28;20140;-75
2023/10/16 09:48:07;;;;;;;6.07;3.75;;;11.20;56.00;;;;;;5052180;28;20267;-72
2023/10/16 09:50:33;;;;;;;7.47;3.40;;;11.30;56.10;;;;;;5052364;28;20043;-74
2023/10/16 09:53:01;;;;;;;5.90;3.55;;;11.70;54.30;;;;;;5051907;28;20143;-73
2023/10/16 09:55:30;;;;;;;7.43;3.80;;;12.10;52.50;;;;;;5051691;28;20135;-73
2023/10/16 09:57:58;;;;;;;7.00;3.35;;;12.30;52.40;;;;;;5050655;28;20021;-71
2023/10/16 10:02:57;;;;;;;5.55;3.10;;;12.40;51.30;;;;;;5051756;28;20497;-77
2023/10/16 10:05:34;;;;;;;4.43;2.75;;;12.70;51.30;;;;;;5052624;28;20040;-75
2023/10/16 10:08:15;;;;;;;4.07;3.03;;;12.90;49.80;;;;;;5058469;28;20484;-74
2023/10/16 10:11:16;;;;;;;5.63;3.40;;;13.10;49.00;;;;;;5052616;28;20171;-79
2023/10/16 10:13:34;;;;;;;7.80;3.58;;;13.10;50.40;;;;;;5057645;28;20048;-78
2023/10/16 10:16:10;;;;;;;8.48;2.90;;;13.10;50.70;;;;;;5055451;28;20029;-79
2023/10/16 10:18:46;;;;;;;5.82;2.95;;;13.10;50.50;;;;;;5054369;28;20086;-79
2023/10/16 10:21:27;;;;;;;5.80;3.20;;;13.00;51.30;;;;;;5054208;28;20096;-76
2023/10/16 10:24:00;;;;;;;5.30;3.20;;;13.10;51.10;;;;;;5053962;28;20100;-76
2023/10/16 10:26:26;;;;;;;7.15;2.55;;;13.10;49.80;;;;;;5061114;28;20012;-77
2023/10/16 10:29:09;;;;;;;6.22;3.17;;;12.90;51.30;;;;;;5075726;28;20025;-76
2023/10/16 10:31:36;;;;;;;8.75;3.47;;;12.90;50.90;;;;;;5070490;28;20017;-76
2023/10/16 10:34:28;;;;;;;5.80;2.90;;;12.90;51.20;;;;;;5063467;28;20443;-77
2023/10/16 10:36:54;;;;;;;4.32;2.92;;;12.90;51.60;;;;;;5054425;28;20036;-76
2023/10/16 10:42:03;;;;;;;5.97;2.57;;;13.20;51.10;;;;;;5055636;28;20025;-75
2023/10/16 10:44:33;;;;;;;5.32;2.60;;;13.30;50.40;;;;;;5055443;28;20024;-77
2023/10/16 10:47:02;;;;;;;7.53;2.90;;;13.30;52.20;;;;;;5055187;28;20044;-76
2023/10/16 10:49:35;;;;;;;5.53;2.50;;;13.60;49.60;;;;;;5054815;28;20029;-77
2023/10/16 10:52:05;;;;;;;5.00;2.38;;;13.90;48.30;;;;;;5054529;28;20021;-76
2023/10/16 10:54:31;;;;;;;4.00;2.40;;;14.30;48.30;;;;;;5054852;28;20440;-78
2023/10/16 10:56:59;;;;;;;4.68;2.80;;;14.60;45.60;;;;;;5054154;28;20075;-73
2023/10/16 10:59:55;;;;;;;4.82;2.78;;;14.80;45.40;;;;;;5054167;28;20488;-73
2023/10/16 11:02:35;;;;;;;3.95;2.92;;;14.90;44.30;;;;;;5054077;28;20033;-75
2023/10/16 11:05:08;;;;;;;5.32;2.85;;;14.80;44.60;;;;;;5054178;28;20406;-73
2023/10/16 11:07:45;;;;;;;5.15;2.70;;;15.00;43.00;;;;;;5053810;28;20013;-73
2023/10/16 11:10:13;;;;;;;5.18;3.05;;;15.20;43.00;;;;;;5053906;28;20492;-74
2023/10/16 11:12:39;;;;;;;5.03;2.88;;;15.20;42.60;;;;;;5054093;28;20017;-73
2023/10/16 11:15:22;;;;;;;4.18;2.55;;;15.50;42.90;;;;;;5054334;28;20067;-74
2023/10/16 11:17:47;;;;;;;3.65;2.33;;;14.90;41.80;;;;;;5053698;28;20195;-79
2023/10/16 11:22:45;;;;;;;4.80;2.58;;;14.40;44.80;;;;;;5054794;28;20131;-78
2023/10/16 11:25:14;;;;;;;6.20;2.38;;;14.40;45.60;;;;;;5054505;28;20028;-79
2023/10/16 11:27:43;;;;;;;2.78;1.83;;;14.30;44.00;;;;;;5053281;28;20477;-79
2023/10/16 11:30:13;;;;;;;5.90;2.50;;;14.30;43.00;;;;;;5054064;28;20381;-77
2023/10/16 11:32:46;;;;;;;3.95;2.20;;;14.50;44.60;;;;;;5054165;28;20052;-77
2023/10/16 11:35:14;;;;;;;2.53;1.50;;;14.80;43.40;;;;;;5054036;28;20048;-76
2023/10/16 11:37:59;;;;;;;2.40;1.05;;;15.00;37.20;;;;;;5054198;28;20127;-78
2023/10/16 11:40:39;;;;;;;3.15;1.02;;;15.50;36.30;;;;;;5053750;28;20096;-77
2023/10/16 11:43:07;;;;;;;3.33;1.15;;;15.90;30.40;;;;;;5053831;28;20656;-74
2023/10/16 11:45:33;;;;;;;3.25;1.33;;;16.20;30.80;;;;;;5053858;28;20036;-73
2023/10/16 11:48:46;;;;;;;3.13;1.00;;;16.70;30.40;;;;;;5052563;28;20025;-74
2023/10/16 11:51:05;;;;;;;2.67;1.10;;;17.20;29.90;;;;;;5053524;28;20040;-73
2023/10/16 11:53:32;;;;;;;2.00;1.20;;;17.70;31.40;;;;;;5052666;28;20028;-73
2023/10/16 11:55:57;;;;;;;4.63;1.52;;;18.00;25.70;;;;;;5052254;28;20143;-73
2023/10/16 11:58:23;;;;;;;2.38;1.02;;;17.60;23.10;;;;;;5052589;28;20052;-72
2023/10/16 12:00:54;;;;;;;1.42;0.85;;;17.30;28.10;;;;;;5052535;28;20029;-73
2023/10/16 12:03:23;;;;;;;1.85;1.00;;;17.50;30.50;;;;;;5053516;28;20437;-72
2023/10/16 12:05:50;;;;;;;1.30;0.90;;;17.90;26.70;;;;;;5053794;28;20113;-78
2023/10/16 12:08:18;;;;;;;1.75;0.90;;;18.20;26.50;;;;;;5053581;28;20056;-73
2023/10/16 12:10:46;;;;;;;2.55;0.95;;;18.60;25.00;;;;;;5053655;28;20484;-73
2023/10/16 12:13:13;;;;;;;1.88;0.77;;;18.60;19.40;;;;;;5053346;28;20021;-73
2023/10/16 12:15:40;;;;;;;1.13;0.57;;;18.30;18.30;;;;;;5053538;28;20330;-73
2023/10/16 12:18:09;;;;;;;1.70;0.70;;;18.40;19.80;;;;;;5053437;28;20124;-75
2023/10/16 12:20:38;;;;;;;2.70;0.90;;;18.60;19.70;;;;;;5053490;28;20383;-73
2023/10/16 12:23:04;;;;;;;1.63;0.68;;;18.70;18.60;;;;;;5053246;28;20029;-73
2023/10/16 12:25:29;;;;;;;1.95;0.80;;;18.50;18.00;;;;;;5053296;28;20377;-76
2023/10/16 12:27:55;;;;;;;2.85;0.88;;;18.30;17.80;;;;;;5053318;28;20033;-75
2023/10/16 12:30:21;;;;;;;1.30;0.70;;;18.30;18.50;;;;;;5052308;28;20025;-73
2023/10/16 12:32:47;;;;;;;1.92;0.70;;;18.50;20.00;;;;;;5052799;28;20029;-73
2023/10/16 12:35:17;;;;;;;2.20;0.57;;;18.70;19.00;;;;;;5053123;28;20104;-72
2023/10/16 12:37:43;;;;;;;2.35;0.88;;;19.00;18.70;;;;;;5052964;28;20084;-73
2023/10/16 12:40:27;;;;;;;1.83;0.90;;;19.20;20.30;;;;;;5053022;28;20053;-74
2023/10/16 12:42:58;;;;;;;2.28;0.82;;;19.50;20.90;;;;;;5053002;28;20017;-73
2023/10/16 12:45:24;;;;;;;2.95;0.93;;;19.60;20.20;;;;;;5053021;28;20465;-76
2023/10/16 12:47:53;;;;;;;2.40;1.00;;;19.70;19.90;;;;;;5052890;28;20053;-73
2023/10/16 12:50:27;;;;;;;2.38;1.08;;;19.90;20.50;;;;;;5051454;28;20470;-75
2023/10/16 12:52:56;;;;;;;2.42;0.85;;;20.20;20.10;;;;;;5053257;28;20053;-73
2023/10/16 12:55:22;;;;;;;1.80;0.73;;;20.40;19.20;;;;;;5052636;28;20075;-73
2023/10/16 12:57:49;;;;;;;2.33;0.80;;;20.60;18.40;;;;;;5052292;28;20028;-75
2023/10/16 13:00:19;;;;;;;3.08;0.90;;;20.80;17.70;;;;;;5052517;28;20021;-74
2023/10/16 13:02:46;;;;;;;1.35;0.70;;;20.60;16.50;;;;;;5052441;28;20405;-72
2023/10/16 13:05:30;;;;;;;2.90;0.82;;;20.60;16.60;;;;;;5054281;28;20434;-73
2023/10/16 13:07:56;;;;;;;1.85;0.60;;;20.60;17.20;;;;;;5054887;28;20123;-72
2023/10/16 13:10:26;;;;;;;2.33;0.80;;;20.60;16.80;;;;;;5053995;28;20060;-73
2023/10/16 13:12:52;;;;;;;2.00;0.80;;;20.50;16.10;;;;;;5052755;28;20021;-73
2023/10/16 13:15:29;;;;;;;2.33;0.80;;;20.40;16.60;;;;;;5051290;28;20021;-74
2023/10/16 13:17:55;;;;;;;2.28;0.75;;;20.20;17.90;;;;;;5052519;28;20028;-72
2023/10/16 13:20:27;;;;;;;0.85;0.63;;;20.30;18.10;;;;;;5052549;28;20054;-73
2023/10/16 13:22:53;;;;;;;2.45;0.82;;;20.30;18.30;;;;;;5052412;28;20021;-73
2023/10/16 13:25:22;;;;;;;1.85;0.63;;;20.50;18.60;;;;;;5052579;28;20102;-75
2023/10/16 13:27:51;;;;;;;1.58;0.93;;;20.90;19.10;;;;;;5052300;28;20334;-78
2023/10/16 13:30:17;;;;;;;2.58;0.73;;;21.20;18.80;;;;;;5052639;28;20396;-76
2023/10/16 13:32:46;;;;;;;3.42;0.70;;;21.70;18.30;;;;;;5052532;28;20024;-73
2023/10/16 13:35:13;;;;;;;3.30;0.55;;;22.10;18.20;;;;;;5052335;28;20421;-73
2023/10/16 13:37:45;;;;;;;2.65;0.70;;;22.30;16.00;;;;;;5052180;28;20499;-73
2023/10/16 13:40:22;;;;;;;2.08;0.80;;;22.60;16.00;;;;;;5052461;28;20063;-72
2023/10/16 13:42:49;;;;;;;2.08;0.68;;;22.90;15.90;;;;;;5056184;28;20024;-73
2023/10/16 13:45:16;;;;;;;3.40;0.85;;;23.10;15.30;;;;;;5056218;28;20029;-73
2023/10/16 13:47:45;;;;;;;1.73;0.80;;;23.50;15.60;;;;;;5056171;28;20035;-72
2023/10/16 13:50:15;;;;;;;3.25;0.95;;;23.70;12.00;;;;;;5056026;28;20036;-73
2023/10/16 13:52:43;;;;;;;2.25;0.63;;;24.00;12.90;;;;;;5054626;28;20033;-74
2023/10/16 13:55:13;;;;;;;1.27;0.70;;;24.40;13.00;;;;;;5055847;28;20025;-73
2023/10/16 13:57:42;;;;;;;2.42;1.10;;;25.10;13.10;;;;;;5055828;28;20128;-74
2023/10/16 14:05:35;;;;;;;2.28;0.68;;;28.20;10.60;;;;;;5055601;28;20416;-72
2023/10/16 14:08:05;;;;;;;1.70;0.75;;;29.20;9.50;;;;;;5055513;28;20039;-72
2023/10/16 14:10:30;;;;;;;2.90;0.50;;;30.10;8.70;;;;;;5054354;28;20068;-71
2023/10/16 14:13:00;;;;;;;1.40;0.60;;;30.90;7.10;;;;;;5054472;28;20056;-71
2023/10/16 14:15:32;;;;;;;1.50;0.90;;;31.70;6.70;;;;;;5054790;28;20064;-72
2023/10/16 14:17:59;;;;;;;2.47;0.68;;;32.60;6.40;;;;;;5056301;28;20489;-73
2023/10/16 14:20:34;;;;;;;1.85;0.80;;;33.60;5.40;;;;;;5055821;28;20057;-72
2023/10/16 14:23:00;;;;;;;2.28;0.90;;;34.40;5.40;;;;;;5055297;28;20029;-73
2023/10/16 14:25:32;;;;;;;1.23;0.70;;;34.90;3.00;;;;;;5055474;28;20100;-75
2023/10/16 14:28:11;;;;;;;0.88;0.50;;;35.00;3.30;;;;;;5055495;28;20358;-71
2023/10/16 14:30:39;;;;;;;0.70;0.50;;;35.20;3.40;;;;;;5055446;28;20025;-75
2023/10/16 14:33:06;;;;;;;2.05;0.73;;;35.70;3.10;;;;;;5054054;28;20032;-72
2023/10/16 14:35:35;;;;;;;1.55;0.60;;;35.90;2.90;;;;;;5055266;28;20449;-75
2023/10/16 14:38:03;;;;;;;1.10;0.80;;;36.00;3.50;;;;;;5055409;28;20087;-74
2023/10/16 14:40:29;;;;;;;1.63;0.80;;;35.80;3.00;;;;;;5054207;28;20500;-75
2023/10/16 14:42:55;;;;;;;3.17;0.85;;;35.70;3.70;;;;;;5055506;28;20053;-74
2023/10/16 14:45:23;;;;;;;3.15;1.30;;;35.60;4.10;;;;;;5055504;28;20085;-75
2023/10/16 14:47:49;;;;;;;1.05;0.60;;;34.90;4.00;;;;;;5055306;28;20068;-75
2023/10/16 14:50:15;;;;;;;2.83;0.88;;;33.60;4.80;;;;;;5055174;28;20025;-77
2023/10/16 14:52:41;;;;;;;1.58;0.70;;;31.90;6.10;;;;;;5054161;28;20474;-79